Time;durP1;ratioP1;P1;durP2;ratioP2;P2;SDS_P1;SDS_P2;PMS_P1;PMS_P2;Temp;Humidity;BMP_temperature;BMP_pressure;BME280_temperature;BME280_humidity;BME280_pressure;Samples;Min_cycle;Max_cycle;Signal;HPM_P1;HPM_P2
2021/05/13 00:02:14;;;;;;;1.17;0.60;;;22.30;43.60;;;;;;5031084;28;20391;-73
2021/05/13 00:04:39;;;;;;;1.10;0.50;;;22.30;43.60;;;;;;5030000;28;20431;-71
2021/05/13 00:07:05;;;;;;;1.73;0.50;;;22.20;43.90;;;;;;5030519;28;20403;-70
2021/05/13 00:09:32;;;;;;;0.90;0.40;;;22.30;44.00;;;;;;5030754;28;20395;-72
2021/05/13 00:12:00;;;;;;;1.00;0.60;;;22.30;43.70;;;;;;5037352;28;20476;-72
2021/05/13 00:14:26;;;;;;;2.05;0.40;;;22.20;43.40;;;;;;5050089;28;20393;-71
2021/05/13 00:16:52;;;;;;;1.27;0.50;;;22.20;44.00;;;;;;5050323;28;20446;-72
2021/05/13 00:19:17;;;;;;;1.80;0.60;;;22.20;43.40;;;;;;5050228;28;20413;-72
2021/05/13 00:21:44;;;;;;;1.30;0.40;;;22.20;43.70;;;;;;5050393;28;20389;-66
2021/05/13 00:24:12;;;;;;;1.95;0.50;;;22.20;43.50;;;;;;5050372;28;20428;-66
2021/05/13 00:26:40;;;;;;;1.27;0.40;;;22.30;43.70;;;;;;5050394;28;20755;-72
2021/05/13 00:29:12;;;;;;;1.20;0.50;;;22.30;43.60;;;;;;5053931;28;20908;-73
2021/05/13 00:31:39;;;;;;;3.53;1.00;;;22.20;43.60;;;;;;5054437;28;20785;-72
2021/05/13 00:34:04;;;;;;;1.77;0.50;;;22.20;43.60;;;;;;5054612;28;20378;-72
2021/05/13 00:36:32;;;;;;;0.80;0.40;;;22.20;43.90;;;;;;5054310;28;20394;-72
2021/05/13 00:38:59;;;;;;;1.20;0.40;;;22.20;43.80;;;;;;5054168;28;20388;-72
2021/05/13 00:41:25;;;;;;;1.48;0.40;;;22.30;43.80;;;;;;5054481;28;20401;-72
2021/05/13 00:43:51;;;;;;;0.73;0.50;;;22.20;43.50;;;;;;5054370;28;20389;-72
2021/05/13 00:46:17;;;;;;;0.88;0.50;;;22.20;43.50;;;;;;5054382;28;20946;-72
2021/05/13 00:48:46;;;;;;;0.63;0.30;;;22.20;43.50;;;;;;5053774;28;20388;-72
2021/05/13 00:51:11;;;;;;;0.93;0.50;;;22.20;43.70;;;;;;5054342;28;20413;-71
2021/05/13 00:53:48;;;;;;;3.30;0.50;;;22.20;43.70;;;;;;5054150;28;20432;-72
2021/05/13 00:56:14;;;;;;;0.70;0.40;;;22.30;43.70;;;;;;5054158;28;20389;-72
2021/05/13 00:58:44;;;;;;;1.77;0.47;;;22.20;43.50;;;;;;5035685;28;21135;-73
2021/05/13 01:01:13;;;;;;;1.42;0.40;;;22.20;43.40;;;;;;5054089;28;20413;-72
2021/05/13 01:03:40;;;;;;;0.85;0.40;;;22.20;43.30;;;;;;5053940;28;20828;-72
2021/05/13 01:06:10;;;;;;;1.55;0.40;;;22.20;43.40;;;;;;5053961;28;20873;-72
2021/05/13 01:08:36;;;;;;;1.40;0.37;;;22.20;43.50;;;;;;5053471;28;20462;-72
2021/05/13 01:11:02;;;;;;;0.98;0.25;;;22.20;43.50;;;;;;5053890;28;20740;-72
2021/05/13 01:13:29;;;;;;;0.75;0.38;;;22.20;43.30;;;;;;5053341;28;20409;-71
2021/05/13 01:16:10;;;;;;;1.00;0.30;;;22.20;43.30;;;;;;5053872;28;20381;-72
2021/05/13 01:18:37;;;;;;;0.95;0.50;;;22.20;43.30;;;;;;5053485;28;20394;-65
2021/05/13 01:21:03;;;;;;;0.70;0.30;;;22.10;43.20;;;;;;5053559;28;20409;-72
2021/05/13 01:23:28;;;;;;;1.63;0.40;;;22.20;43.40;;;;;;5053608;28;20392;-72
2021/05/13 01:25:55;;;;;;;0.80;0.40;;;22.20;43.30;;;;;;5053590;28;20398;-72
2021/05/13 01:28:23;;;;;;;0.60;0.40;;;22.20;43.20;;;;;;5053585;28;20369;-71
2021/05/13 01:30:51;;;;;;;1.10;0.40;;;22.20;43.10;;;;;;5053610;28;20690;-64
2021/05/13 01:33:19;;;;;;;0.73;0.30;;;22.20;43.10;;;;;;5053574;28;20390;-72
2021/05/13 01:35:45;;;;;;;0.73;0.30;;;22.10;43.00;;;;;;5053509;28;20425;-72
2021/05/13 01:38:14;;;;;;;0.70;0.30;;;22.10;43.20;;;;;;5053457;28;20416;-73
2021/05/13 01:40:40;;;;;;;0.80;0.40;;;22.20;43.30;;;;;;5051898;28;21168;-72
2021/05/13 01:43:06;;;;;;;0.65;0.30;;;22.20;43.10;;;;;;5053337;28;20384;-72
2021/05/13 01:45:33;;;;;;;0.60;0.28;;;22.20;43.00;;;;;;5053203;28;20453;-72
2021/05/13 01:48:02;;;;;;;0.95;0.40;;;22.20;42.90;;;;;;5053164;28;20873;-71
2021/05/13 01:50:32;;;;;;;0.65;0.30;;;22.10;42.90;;;;;;5053144;28;20386;-73
2021/05/13 01:53:03;;;;;;;0.50;0.30;;;22.10;43.00;;;;;;5052940;28;20385;-72
2021/05/13 01:55:29;;;;;;;0.47;0.27;;;22.10;43.00;;;;;;5053053;28;20436;-73
2021/05/13 01:57:55;;;;;;;0.63;0.30;;;22.20;43.00;;;;;;5053002;28;20443;-72
2021/05/13 02:00:21;;;;;;;1.05;0.30;;;22.20;42.90;;;;;;5052937;28;20416;-70
2021/05/13 02:02:49;;;;;;;0.60;0.30;;;22.10;42.90;;;;;;5052470;28;20386;-73
2021/05/13 02:05:16;;;;;;;0.43;0.20;;;22.10;42.80;;;;;;5052848;28;20390;-72
2021/05/13 02:07:42;;;;;;;0.70;0.30;;;22.10;42.90;;;;;;5052747;28;20880;-72
2021/05/13 02:10:10;;;;;;;1.20;0.30;;;22.10;42.90;;;;;;5052782;28;20480;-73
2021/05/13 02:12:37;;;;;;;0.98;0.40;;;22.20;43.00;;;;;;5052332;28;20393;-72
2021/05/13 02:15:09;;;;;;;0.55;0.30;;;22.10;42.80;;;;;;5052412;28;20389;-72
2021/05/13 02:17:35;;;;;;;0.60;0.25;;;22.10;42.70;;;;;;5052595;28;20410;-72
2021/05/13 02:20:01;;;;;;;0.98;0.28;;;22.10;42.70;;;;;;5052529;28;20405;-72
2021/05/13 02:22:26;;;;;;;0.50;0.20;;;22.10;42.90;;;;;;5034939;28;20424;-73
2021/05/13 02:24:52;;;;;;;0.63;0.30;;;22.10;42.80;;;;;;5052036;28;20386;-72
2021/05/13 02:27:18;;;;;;;0.50;0.20;;;22.10;42.80;;;;;;5052502;28;20401;-72
2021/05/13 02:29:43;;;;;;;0.32;0.20;;;22.10;42.70;;;;;;5052508;28;20388;-73
2021/05/13 02:32:09;;;;;;;0.53;0.30;;;22.10;42.80;;;;;;5051989;28;20406;-71
2021/05/13 02:34:34;;;;;;;0.30;0.20;;;22.10;42.70;;;;;;5051969;28;20389;-72
2021/05/13 02:37:00;;;;;;;0.40;0.23;;;22.10;42.90;;;;;;5051998;28;20745;-72
2021/05/13 02:39:26;;;;;;;0.63;0.33;;;22.10;42.90;;;;;;5052107;28;20417;-72
2021/05/13 02:41:51;;;;;;;0.43;0.30;;;22.10;42.80;;;;;;5052164;28;20389;-71
2021/05/13 02:44:17;;;;;;;0.60;0.20;;;22.10;42.70;;;;;;5034317;28;20406;-73
2021/05/13 02:46:42;;;;;;;1.20;0.20;;;22.10;42.80;;;;;;5051453;28;20385;-72
2021/05/13 02:49:08;;;;;;;0.50;0.30;;;22.10;42.70;;;;;;5052055;28;20394;-72
2021/05/13 02:51:34;;;;;;;1.27;0.57;;;22.00;42.50;;;;;;5051903;28;20393;-72
2021/05/13 02:53:59;;;;;;;0.50;0.30;;;22.00;42.90;;;;;;5052086;28;20456;-72
2021/05/13 02:56:25;;;;;;;0.47;0.25;;;22.10;42.80;;;;;;5051872;28;20804;-72
2021/05/13 02:58:51;;;;;;;0.40;0.20;;;22.10;42.70;;;;;;5051502;28;20440;-73
2021/05/13 03:01:29;;;;;;;0.40;0.20;;;22.10;42.60;;;;;;5051792;28;20420;-73
2021/05/13 03:03:55;;;;;;;0.50;0.20;;;22.10;42.60;;;;;;5051804;28;20373;-72
2021/05/13 03:06:22;;;;;;;0.40;0.20;;;22.00;42.60;;;;;;5051848;28;20401;-71
2021/05/13 03:08:55;;;;;;;0.93;0.52;;;22.00;42.80;;;;;;5051214;28;20396;-72
2021/05/13 03:11:23;;;;;;;0.80;0.20;;;22.10;42.80;;;;;;5051688;28;20382;-71
2021/05/13 03:13:51;;;;;;;0.30;0.20;;;22.00;42.60;;;;;;5051518;28;20410;-73
2021/05/13 03:16:17;;;;;;;0.45;0.20;;;22.00;42.60;;;;;;5051676;28;20389;-73
2021/05/13 03:18:47;;;;;;;0.40;0.30;;;22.10;42.50;;;;;;5051042;28;20443;-64
2021/05/13 03:21:24;;;;;;;0.57;0.32;;;22.10;42.60;;;;;;5011863;28;20418;-71
2021/05/13 03:26:55;;;;;;;0.68;0.30;;;22.00;42.70;;;;;;5031499;28;20402;-71
2021/05/13 03:29:10;;;;;;;0.70;0.30;;;22.00;42.60;;;;;;5029885;28;20400;-73
2021/05/13 03:31:35;;;;;;;0.65;0.30;;;22.00;42.60;;;;;;5031523;28;20952;-73
2021/05/13 03:34:01;;;;;;;0.70;0.30;;;22.00;42.50;;;;;;5031455;28;20466;-73
2021/05/13 03:36:27;;;;;;;0.65;0.32;;;22.00;42.50;;;;;;5031498;28;20395;-72
2021/05/13 03:38:53;;;;;;;0.40;0.30;;;22.00;42.60;;;;;;5031281;28;20391;-72
2021/05/13 03:41:19;;;;;;;0.47;0.30;;;22.10;42.60;;;;;;5031333;28;20559;-70
2021/05/13 03:43:45;;;;;;;0.30;0.20;;;22.00;42.50;;;;;;5031472;28;20387;-71
2021/05/13 03:46:10;;;;;;;0.38;0.20;;;22.00;42.50;;;;;;5031436;28;20875;-71
2021/05/13 03:48:36;;;;;;;0.50;0.30;;;22.00;42.50;;;;;;5031490;28;20383;-73
2021/05/13 03:51:02;;;;;;;0.50;0.30;;;22.00;42.40;;;;;;5031128;28;20393;-72
2021/05/13 03:53:27;;;;;;;0.55;0.28;;;22.00;42.60;;;;;;5031228;28;20457;-72
2021/05/13 03:55:53;;;;;;;0.40;0.30;;;22.00;42.60;;;;;;5031343;28;20852;-72
2021/05/13 03:58:26;;;;;;;0.50;0.20;;;22.00;42.50;;;;;;5031420;28;20399;-69
2021/05/13 04:01:44;;;;;;;0.50;0.20;;;22.00;42.40;;;;;;5030812;28;20447;-72
2021/05/13 04:03:40;;;;;;;0.30;0.17;;;22.00;42.40;;;;;;5018160;28;20395;-72
2021/05/13 04:06:06;;;;;;;0.37;0.20;;;22.00;42.40;;;;;;5035243;28;20393;-72
2021/05/13 04:08:32;;;;;;;0.38;0.22;;;22.00;42.60;;;;;;5035149;28;20379;-72
2021/05/13 04:10:57;;;;;;;0.32;0.20;;;22.00;42.50;;;;;;5034698;28;21077;-72
2021/05/13 04:13:23;;;;;;;0.30;0.30;;;22.00;42.60;;;;;;5034885;28;20415;-71
2021/05/13 04:15:49;;;;;;;0.40;0.20;;;22.00;42.60;;;;;;5035006;28;20391;-71
2021/05/13 04:18:15;;;;;;;0.40;0.20;;;22.00;42.40;;;;;;5034486;28;20883;-73
2021/05/13 04:20:41;;;;;;;0.43;0.13;;;22.00;42.40;;;;;;5034670;28;20415;-66
2021/05/13 04:23:11;;;;;;;0.80;0.30;;;21.90;42.50;;;;;;5034692;28;20866;-72
2021/05/13 04:25:37;;;;;;;0.20;0.20;;;22.00;42.40;;;;;;5034848;28;20453;-73
2021/05/13 04:28:03;;;;;;;0.50;0.20;;;22.00;42.50;;;;;;5034843;28;20436;-73
2021/05/13 04:30:30;;;;;;;0.50;0.20;;;22.00;42.30;;;;;;5033735;28;20397;-71
2021/05/13 04:32:56;;;;;;;0.40;0.20;;;22.00;42.30;;;;;;5032956;28;20415;-73
2021/05/13 04:35:21;;;;;;;0.30;0.20;;;22.00;42.30;;;;;;5034439;28;20444;-68
2021/05/13 04:37:47;;;;;;;0.57;0.30;;;21.90;42.30;;;;;;5034859;28;20379;-73
2021/05/13 04:40:13;;;;;;;0.70;0.30;;;21.90;42.40;;;;;;5034566;28;20796;-73
2021/05/13 04:42:39;;;;;;;0.40;0.20;;;22.00;42.40;;;;;;5034527;28;20971;-72
2021/05/13 04:45:06;;;;;;;0.30;0.20;;;22.00;42.30;;;;;;5034103;28;20425;-72
2021/05/13 04:50:07;;;;;;;0.30;0.20;;;21.90;42.10;;;;;;5034438;28;20379;-72
2021/05/13 04:52:35;;;;;;;0.20;0.20;;;21.90;42.10;;;;;;5034429;28;20449;-72
2021/05/13 04:55:01;;;;;;;0.30;0.20;;;21.90;42.40;;;;;;5033770;28;20854;-73
2021/05/13 04:57:26;;;;;;;0.53;0.20;;;21.90;42.40;;;;;;5034143;28;20400;-72
2021/05/13 04:59:52;;;;;;;0.30;0.20;;;21.90;42.20;;;;;;5034207;28;20415;-73
2021/05/13 05:02:18;;;;;;;0.30;0.20;;;21.90;42.30;;;;;;5034203;28;20747;-72
2021/05/13 05:04:43;;;;;;;0.45;0.20;;;21.90;42.20;;;;;;5033854;28;20441;-72
2021/05/13 05:07:09;;;;;;;0.70;0.30;;;21.90;42.10;;;;;;5033854;28;20399;-72
2021/05/13 05:09:35;;;;;;;0.50;0.30;;;21.90;42.40;;;;;;5025871;28;20395;-73
2021/05/13 05:12:01;;;;;;;0.50;0.20;;;21.90;42.40;;;;;;5033854;28;20414;-72
2021/05/13 05:14:27;;;;;;;0.50;0.20;;;21.90;42.30;;;;;;5032675;28;20391;-72
2021/05/13 05:16:53;;;;;;;0.55;0.30;;;21.90;42.20;;;;;;5033471;28;20778;-72
2021/05/13 05:19:18;;;;;;;0.57;0.30;;;21.90;42.20;;;;;;5033730;28;20938;-69
2021/05/13 05:21:44;;;;;;;0.50;0.30;;;21.90;42.10;;;;;;5033810;28;20426;-73
2021/05/13 05:24:10;;;;;;;0.30;0.30;;;21.90;42.30;;;;;;5033818;28;20851;-71
2021/05/13 05:26:36;;;;;;;0.40;0.30;;;21.90;42.30;;;;;;5033756;28;20398;-72
2021/05/13 05:29:02;;;;;;;0.30;0.20;;;21.90;42.30;;;;;;5033289;28;20379;-73
2021/05/13 05:31:28;;;;;;;0.57;0.30;;;21.90;42.20;;;;;;5033552;28;20414;-67
2021/05/13 05:33:54;;;;;;;1.20;0.30;;;21.90;42.40;;;;;;5033625;28;20868;-70
2021/05/13 05:36:20;;;;;;;1.50;0.57;;;21.90;42.10;;;;;;5033533;28;20902;-70
2021/05/13 05:38:46;;;;;;;0.95;0.35;;;21.90;43.00;;;;;;5015549;28;20387;-72
2021/05/13 05:41:11;;;;;;;0.75;0.32;;;21.90;41.90;;;;;;5033145;28;20502;-72
2021/05/13 05:43:37;;;;;;;0.47;0.20;;;21.90;41.40;;;;;;5034451;28;20383;-72
2021/05/13 05:46:03;;;;;;;0.40;0.30;;;21.90;41.60;;;;;;5033386;28;20490;-72
2021/05/13 05:48:29;;;;;;;0.65;0.30;;;21.80;42.10;;;;;;5033287;28;20418;-71
2021/05/13 05:50:54;;;;;;;0.90;0.27;;;21.90;42.00;;;;;;5032841;28;20383;-71
2021/05/13 05:53:20;;;;;;;0.65;0.22;;;21.80;42.10;;;;;;5015427;28;20781;-71
2021/05/13 05:55:45;;;;;;;0.57;0.30;;;21.80;41.80;;;;;;5033099;28;20391;-72
2021/05/13 05:58:11;;;;;;;1.00;0.30;;;21.90;41.90;;;;;;5033190;28;20433;-72
2021/05/13 06:00:37;;;;;;;0.53;0.30;;;21.90;41.80;;;;;;5032963;28;20447;-72
2021/05/13 06:03:03;;;;;;;0.45;0.30;;;21.90;41.80;;;;;;5032530;28;20408;-72
2021/05/13 06:05:28;;;;;;;0.82;0.30;;;22.00;41.50;;;;;;5032800;28;20399;-71
2021/05/13 06:07:54;;;;;;;1.10;0.30;;;22.00;41.90;;;;;;5032972;28;20395;-71
2021/05/13 06:10:20;;;;;;;1.00;0.30;;;22.00;41.50;;;;;;5033308;28;20482;-70
2021/05/13 06:12:47;;;;;;;0.90;0.40;;;22.10;41.70;;;;;;5033083;28;20399;-68
2021/05/13 06:15:15;;;;;;;3.70;0.50;;;22.10;42.30;;;;;;5032561;28;20770;-72
2021/05/13 06:17:40;;;;;;;1.90;0.20;;;22.10;42.30;;;;;;5032709;28;20796;-72
2021/05/13 06:20:15;;;;;;;3.43;0.37;;;22.10;42.30;;;;;;5032598;28;20510;-72
2021/05/13 06:22:41;;;;;;;1.10;0.30;;;22.10;42.20;;;;;;5025299;28;20388;-72
2021/05/13 06:25:07;;;;;;;1.88;0.35;;;22.20;42.40;;;;;;5031900;28;20421;-72
2021/05/13 06:27:32;;;;;;;4.03;0.30;;;22.20;42.00;;;;;;5032382;28;20395;-72
2021/05/13 06:29:58;;;;;;;1.70;0.30;;;22.20;42.10;;;;;;5014789;28;20399;-63
2021/05/13 06:32:25;;;;;;;2.38;0.38;;;22.30;42.10;;;;;;5032521;28;20391;-70
2021/05/13 06:34:51;;;;;;;1.27;0.30;;;22.20;42.10;;;;;;5032179;28;20392;-72
2021/05/13 06:37:17;;;;;;;1.45;0.30;;;22.30;42.00;;;;;;5033290;28;20387;-72
2021/05/13 06:39:43;;;;;;;1.67;0.30;;;22.30;42.50;;;;;;5033602;28;20399;-73
2021/05/13 06:42:08;;;;;;;1.00;0.40;;;22.20;42.30;;;;;;5032332;28;20395;-73
2021/05/13 06:44:34;;;;;;;2.17;0.40;;;22.20;42.80;;;;;;5032232;28;20408;-73
2021/05/13 06:47:00;;;;;;;2.40;0.38;;;22.20;42.40;;;;;;5031630;28;20941;-73
2021/05/13 06:49:26;;;;;;;1.90;0.35;;;22.30;42.10;;;;;;5031868;28;20910;-73
2021/05/13 06:51:51;;;;;;;2.10;0.40;;;22.30;42.40;;;;;;5032158;28;20875;-73
2021/05/13 06:54:17;;;;;;;1.85;0.30;;;22.30;43.00;;;;;;5031974;28;20488;-73
2021/05/13 06:56:43;;;;;;;0.80;0.30;;;22.30;42.10;;;;;;5031987;28;20441;-73
2021/05/13 06:59:09;;;;;;;1.30;0.30;;;22.30;42.40;;;;;;5031567;28;20395;-72
2021/05/13 07:01:36;;;;;;;1.05;0.30;;;22.20;43.20;;;;;;5032275;28;20497;-73
2021/05/13 07:04:05;;;;;;;2.40;0.40;;;22.20;43.80;;;;;;5031792;28;20441;-73
2021/05/13 07:06:33;;;;;;;0.95;0.40;;;22.30;43.00;;;;;;5031774;28;20445;-73
2021/05/13 07:08:59;;;;;;;2.60;0.40;;;22.30;43.60;;;;;;5031406;28;20473;-73
2021/05/13 07:11:25;;;;;;;1.15;0.30;;;22.40;43.40;;;;;;5031744;28;20757;-72
2021/05/13 07:13:51;;;;;;;1.80;0.40;;;22.40;43.40;;;;;;5031729;28;20522;-72
2021/05/13 07:16:16;;;;;;;3.07;0.40;;;22.40;42.90;;;;;;5031901;28;20962;-73
2021/05/13 07:18:42;;;;;;;2.55;0.45;;;22.40;42.80;;;;;;5031573;28;20395;-73
2021/05/13 07:21:08;;;;;;;2.63;0.30;;;22.40;42.40;;;;;;5013464;28;20435;-70
2021/05/13 07:23:33;;;;;;;2.10;0.70;;;22.40;42.10;;;;;;5031637;28;20387;-72
2021/05/13 07:26:00;;;;;;;1.10;0.30;;;22.40;42.10;;;;;;5031622;28;20872;-71
2021/05/13 07:28:26;;;;;;;1.98;0.35;;;22.40;42.00;;;;;;5031667;28;20471;-70
2021/05/13 07:30:52;;;;;;;1.60;0.40;;;22.40;42.00;;;;;;5031357;28;20479;-69
2021/05/13 07:33:18;;;;;;;3.00;0.47;;;22.40;41.70;;;;;;5031334;28;20379;-66
2021/05/13 07:35:44;;;;;;;2.72;0.45;;;22.50;41.80;;;;;;5031435;28;20764;-71
2021/05/13 07:38:09;;;;;;;1.05;0.40;;;22.50;41.70;;;;;;5030761;28;20390;-72
2021/05/13 07:40:37;;;;;;;1.00;0.40;;;22.50;41.70;;;;;;5031413;28;21021;-71
2021/05/13 07:43:03;;;;;;;3.15;0.70;;;22.50;41.60;;;;;;5031003;28;20387;-71
2021/05/13 07:45:28;;;;;;;1.80;0.60;;;22.50;41.70;;;;;;5031462;28;20446;-71
2021/05/13 07:47:54;;;;;;;1.10;0.50;;;22.50;41.60;;;;;;5031390;28;20851;-71
2021/05/13 07:50:21;;;;;;;1.07;0.30;;;22.50;41.60;;;;;;5031330;28;20391;-71
2021/05/13 07:52:48;;;;;;;1.02;0.50;;;22.50;42.10;;;;;;5031556;28;20418;-71
2021/05/13 07:55:15;;;;;;;1.73;0.30;;;22.50;41.50;;;;;;5030887;28;20379;-71
2021/05/13 07:57:43;;;;;;;0.93;0.40;;;22.50;41.50;;;;;;5031307;28;20395;-71
2021/05/13 08:00:09;;;;;;;0.85;0.30;;;22.50;41.40;;;;;;5031167;28;20482;-71
2021/05/13 08:02:35;;;;;;;1.20;0.40;;;22.50;41.40;;;;;;5031147;28;20387;-71
2021/05/13 08:05:01;;;;;;;0.80;0.30;;;22.50;41.30;;;;;;5030217;28;21115;-71
2021/05/13 08:07:27;;;;;;;0.88;0.25;;;22.60;41.30;;;;;;5031146;28;20859;-71
2021/05/13 08:09:52;;;;;;;1.23;0.40;;;22.60;41.30;;;;;;5031239;28;20402;-71
2021/05/13 08:12:19;;;;;;;0.90;0.40;;;22.60;41.20;;;;;;5030990;28;20597;-70
2021/05/13 08:14:44;;;;;;;1.55;0.50;;;22.60;41.20;;;;;;5031233;28;20395;-71
2021/05/13 08:17:11;;;;;;;1.40;0.30;;;22.60;41.10;;;;;;5030940;28;20390;-71
2021/05/13 08:19:37;;;;;;;0.70;0.30;;;22.60;41.10;;;;;;5030892;28;21021;-71
2021/05/13 08:22:03;;;;;;;0.55;0.30;;;22.60;41.00;;;;;;5031116;28;20486;-71
2021/05/13 08:24:28;;;;;;;0.77;0.33;;;22.60;41.00;;;;;;5031031;28;20383;-70
2021/05/13 08:26:56;;;;;;;0.65;0.30;;;22.60;40.90;;;;;;5030954;28;20982;-70
2021/05/13 08:29:23;;;;;;;0.50;0.30;;;22.60;40.90;;;;;;5030843;28;20383;-70
2021/05/13 08:31:49;;;;;;;0.60;0.30;;;22.60;40.80;;;;;;5031041;28;20390;-71
2021/05/13 08:34:15;;;;;;;1.80;0.50;;;22.60;40.70;;;;;;5031037;28;20905;-71
2021/05/13 08:36:40;;;;;;;1.40;0.33;;;22.60;40.90;;;;;;5030923;28;20410;-70
2021/05/13 08:39:06;;;;;;;2.85;0.60;;;22.60;41.10;;;;;;5030445;28;20387;-70
2021/05/13 08:41:32;;;;;;;1.90;0.60;;;22.60;41.90;;;;;;5030766;28;20419;-71
2021/05/13 08:43:57;;;;;;;2.47;0.40;;;22.60;42.40;;;;;;5031083;28;20791;-70
2021/05/13 08:46:23;;;;;;;6.22;0.60;;;22.60;43.00;;;;;;5034162;28;20751;-64
2021/05/13 08:48:50;;;;;;;7.10;1.00;;;22.70;42.60;;;;;;5038790;28;20388;-66
2021/05/13 08:51:17;;;;;;;9.70;0.90;;;22.70;43.00;;;;;;5033416;28;20490;-64
2021/05/13 08:53:48;;;;;;;8.80;0.80;;;22.60;42.10;;;;;;5034452;28;20406;-70
2021/05/13 08:56:14;;;;;;;6.10;0.60;;;22.70;42.10;;;;;;5042207;28;20407;-69
2021/05/13 08:58:42;;;;;;;4.07;0.70;;;22.70;42.20;;;;;;5045494;28;20448;-71
2021/05/13 09:01:16;;;;;;;3.42;0.55;;;22.70;42.20;;;;;;5043082;28;20404;-60
2021/05/13 09:03:43;;;;;;;5.03;0.50;;;22.60;41.90;;;;;;5020064;28;20388;-72
2021/05/13 09:06:21;;;;;;;3.83;0.85;;;22.70;41.80;;;;;;5030555;28;20721;-71
2021/05/13 09:08:47;;;;;;;4.32;0.52;;;22.70;41.70;;;;;;5027768;28;20391;-72
2021/05/13 09:11:16;;;;;;;4.70;0.88;;;22.70;41.50;;;;;;5033431;28;20414;-72
2021/05/13 09:13:48;;;;;;;3.20;1.00;;;22.70;41.40;;;;;;5015301;28;20423;-60
2021/05/13 09:16:35;;;;;;;5.80;2.25;;;22.70;41.30;;;;;;5033537;28;20387;-67
2021/05/13 09:19:18;;;;;;;3.50;1.10;;;22.80;41.40;;;;;;5025791;28;20428;-68
2021/05/13 09:21:51;;;;;;;4.97;1.50;;;22.70;41.60;;;;;;5031228;28;20399;-71
2021/05/13 09:24:55;;;;;;;4.15;1.30;;;22.70;41.10;;;;;;5040734;28;20523;-74
2021/05/13 09:27:43;;;;;;;4.22;0.93;;;22.70;41.00;;;;;;5041075;28;20382;-71
2021/05/13 09:30:22;;;;;;;1.83;0.73;;;22.70;41.30;;;;;;5027376;28;20467;-72
2021/05/13 09:32:49;;;;;;;4.97;0.80;;;22.70;41.60;;;;;;5042177;28;20421;-71
2021/05/13 09:35:20;;;;;;;3.38;0.82;;;22.70;41.80;;;;;;5038923;28;20407;-71
2021/05/13 09:37:51;;;;;;;5.50;0.80;;;22.70;41.40;;;;;;5042160;28;20396;-71
2021/05/13 09:40:36;;;;;;;3.47;1.17;;;22.80;41.60;;;;;;5039101;28;20442;-71
2021/05/13 09:43:12;;;;;;;5.00;1.10;;;22.80;41.60;;;;;;5037981;28;20390;-70
2021/05/13 09:45:50;;;;;;;4.45;1.30;;;22.80;41.40;;;;;;5031923;28;20387;-70
2021/05/13 09:48:39;;;;;;;4.97;1.73;;;22.80;41.40;;;;;;5038770;28;20391;-71
2021/05/13 09:51:29;;;;;;;4.70;0.90;;;22.80;41.30;;;;;;5035393;28;20402;-70
2021/05/13 09:54:11;;;;;;;4.45;1.00;;;22.80;41.10;;;;;;5038368;28;20391;-71
2021/05/13 09:56:39;;;;;;;3.95;1.20;;;22.90;41.20;;;;;;5039457;28;20391;-69
2021/05/13 09:59:20;;;;;;;4.43;1.10;;;22.90;41.30;;;;;;5039331;28;20400;-72
2021/05/13 10:01:46;;;;;;;2.25;0.82;;;22.90;41.10;;;;;;5039117;28;20406;-71
2021/05/13 10:04:12;;;;;;;2.30;1.00;;;22.90;41.10;;;;;;5040205;28;20386;-71
2021/05/13 10:06:38;;;;;;;2.45;1.17;;;22.90;41.20;;;;;;5044932;28;20393;-71
2021/05/13 10:09:04;;;;;;;4.95;1.33;;;23.00;41.30;;;;;;5043012;28;20745;-71
2021/05/13 10:11:31;;;;;;;4.03;1.60;;;23.00;41.10;;;;;;5037608;28;20403;-71
2021/05/13 10:13:58;;;;;;;5.75;1.40;;;23.00;41.00;;;;;;5041223;28;20405;-72
2021/05/13 10:16:27;;;;;;;6.00;1.67;;;23.00;40.90;;;;;;5039722;28;21622;-70
2021/05/13 10:18:58;;;;;;;6.93;1.67;;;23.00;41.10;;;;;;5038431;28;20444;-72
2021/05/13 10:21:27;;;;;;;5.88;1.85;;;23.00;40.90;;;;;;5039753;28;20425;-64
2021/05/13 10:23:55;;;;;;;6.00;1.60;;;23.00;40.90;;;;;;5038496;28;20802;-68
2021/05/13 10:26:44;;;;;;;4.73;1.80;;;23.00;41.00;;;;;;5042863;28;20878;-65
2021/05/13 10:29:22;;;;;;;4.90;1.60;;;23.00;41.00;;;;;;5036714;28;20388;-69
2021/05/13 10:32:03;;;;;;;6.13;1.93;;;23.00;40.90;;;;;;5042306;28;20394;-72
2021/05/13 10:34:49;;;;;;;3.60;1.65;;;23.00;40.90;;;;;;5042051;28;20473;-71
2021/05/13 10:37:18;;;;;;;7.95;1.80;;;23.00;40.90;;;;;;5039151;28;20374;-71
2021/05/13 10:40:06;;;;;;;3.58;1.30;;;23.00;40.90;;;;;;5041886;28;20412;-71
2021/05/13 10:42:33;;;;;;;5.07;1.50;;;23.10;41.00;;;;;;5037502;28;20445;-72
2021/05/13 10:44:59;;;;;;;5.35;1.50;;;23.10;40.90;;;;;;5028883;28;20761;-70
2021/05/13 10:47:29;;;;;;;4.07;1.40;;;23.10;41.00;;;;;;5043981;28;20391;-71
2021/05/13 10:49:56;;;;;;;5.63;1.73;;;23.10;40.90;;;;;;5038404;28;20434;-72
2021/05/13 10:52:32;;;;;;;5.72;1.60;;;23.10;40.70;;;;;;5041944;28;20393;-70
2021/05/13 10:54:58;;;;;;;4.63;1.75;;;23.10;40.80;;;;;;5040839;28;20873;-71
2021/05/13 10:57:24;;;;;;;3.50;1.50;;;23.20;40.80;;;;;;5041005;28;20406;-66
2021/05/13 11:00:08;;;;;;;3.85;1.60;;;23.20;40.80;;;;;;5038625;28;20801;-68
2021/05/13 11:02:51;;;;;;;5.07;1.42;;;23.20;40.70;;;;;;5039418;28;20408;-71
2021/05/13 11:05:29;;;;;;;3.42;1.40;;;23.20;40.70;;;;;;5038241;28;20379;-70
2021/05/13 11:08:01;;;;;;;3.15;1.40;;;23.20;40.60;;;;;;5038103;28;20412;-65
2021/05/13 11:10:49;;;;;;;4.80;1.70;;;23.20;40.50;;;;;;5039377;28;20454;-65
2021/05/13 11:13:16;;;;;;;4.43;1.60;;;23.20;40.60;;;;;;5036360;28;20899;-67
2021/05/13 11:15:44;;;;;;;5.22;1.73;;;23.20;40.50;;;;;;5039771;28;20464;-71
2021/05/13 11:18:13;;;;;;;7.80;1.77;;;23.30;40.50;;;;;;5045896;28;20456;-72
2021/05/13 11:20:50;;;;;;;6.43;1.50;;;23.30;40.60;;;;;;5051253;28;20428;-72
2021/05/13 11:23:19;;;;;;;5.43;1.63;;;23.30;40.70;;;;;;5051032;28;20866;-72
2021/05/13 11:25:49;;;;;;;7.15;1.73;;;23.30;40.50;;;;;;5050397;28;20492;-71
2021/05/13 11:28:42;;;;;;;6.00;1.70;;;23.30;40.40;;;;;;5051471;28;20881;-71
2021/05/13 11:31:07;;;;;;;5.47;1.92;;;23.30;40.50;;;;;;5050992;28;20464;-63
2021/05/13 11:33:44;;;;;;;7.97;2.10;;;23.30;40.30;;;;;;5051005;28;20472;-60
2021/05/13 11:36:12;;;;;;;6.78;1.80;;;23.30;40.60;;;;;;5051150;28;20385;-70
2021/05/13 11:38:38;;;;;;;11.87;2.20;;;23.30;40.50;;;;;;5050925;28;20894;-73
2021/05/13 11:41:05;;;;;;;5.80;2.30;;;23.30;41.00;;;;;;5051232;28;20452;-69
2021/05/13 11:43:32;;;;;;;11.05;2.67;;;23.30;40.50;;;;;;5050680;28;20476;-69
2021/05/13 11:46:04;;;;;;;7.97;2.20;;;23.30;40.70;;;;;;5051002;28;20394;-72
2021/05/13 11:48:32;;;;;;;8.63;2.20;;;23.30;40.70;;;;;;5050992;28;20393;-71
2021/05/13 11:51:04;;;;;;;10.20;2.00;;;23.30;40.50;;;;;;5051007;28;20389;-70
2021/05/13 11:53:30;;;;;;;8.82;2.10;;;23.30;40.40;;;;;;5050699;28;20390;-71
2021/05/13 11:55:57;;;;;;;13.13;2.70;;;23.30;40.60;;;;;;5051131;28;20408;-72
2021/05/13 11:58:47;;;;;;;10.15;2.70;;;23.30;40.90;;;;;;5051096;28;20741;-71
2021/05/13 12:01:17;;;;;;;12.00;2.58;;;23.40;41.20;;;;;;5050792;28;20773;-71
2021/05/13 12:03:44;;;;;;;10.82;2.63;;;23.40;41.00;;;;;;5050850;28;20381;-72
2021/05/13 12:06:10;;;;;;;20.48;16.92;;;23.50;41.00;;;;;;5051158;28;20392;-70
2021/05/13 12:08:38;;;;;;;13.15;5.72;;;23.60;40.90;;;;;;5051781;28;20388;-70
2021/05/13 12:11:15;;;;;;;12.52;4.90;;;23.70;40.80;;;;;;5050933;28;20868;-71
2021/05/13 12:13:41;;;;;;;10.98;4.80;;;23.90;40.60;;;;;;5025265;28;20413;-71
2021/05/13 12:16:07;;;;;;;10.33;4.57;;;23.90;40.40;;;;;;5050729;28;20396;-71
2021/05/13 12:18:33;;;;;;;8.75;3.63;;;23.90;40.40;;;;;;5050571;28;20435;-71
2021/05/13 12:21:00;;;;;;;8.93;3.90;;;24.00;40.30;;;;;;5050947;28;20492;-69
2021/05/13 12:23:26;;;;;;;9.10;3.40;;;24.10;40.20;;;;;;5050775;28;20407;-72
2021/05/13 12:25:51;;;;;;;6.85;3.33;;;24.20;40.10;;;;;;5054591;28;20381;-71
2021/05/13 12:28:18;;;;;;;9.10;3.67;;;24.20;39.70;;;;;;5054552;28;20447;-70
2021/05/13 12:30:54;;;;;;;11.00;4.83;;;24.30;39.50;;;;;;5054395;28;20893;-71
2021/05/13 12:33:24;;;;;;;11.43;5.85;;;24.40;39.40;;;;;;5054039;28;20389;-71
2021/05/13 12:35:51;;;;;;;13.60;7.03;;;24.50;39.20;;;;;;5054689;28;20400;-66
2021/05/13 12:38:21;;;;;;;14.80;8.02;;;24.60;39.00;;;;;;5054205;28;20443;-72
2021/05/13 12:40:48;;;;;;;15.13;10.75;;;24.70;38.80;;;;;;5054232;28;20405;-70
2021/05/13 12:43:15;;;;;;;13.73;10.13;;;24.90;38.60;;;;;;5036179;28;20412;-73
2021/05/13 12:45:49;;;;;;;14.88;7.63;;;25.00;38.50;;;;;;5053953;28;20474;-71
2021/05/13 12:48:25;;;;;;;13.80;6.97;;;25.10;38.40;;;;;;5054252;28;20381;-71
2021/05/13 12:50:55;;;;;;;11.85;6.47;;;25.30;38.30;;;;;;5054192;28;20447;-72
2021/05/13 12:53:21;;;;;;;9.18;5.63;;;25.30;38.50;;;;;;5053515;28;20378;-71
2021/05/13 12:55:47;;;;;;;9.10;5.20;;;25.40;38.70;;;;;;5054043;28;20868;-67
2021/05/13 12:58:16;;;;;;;11.30;5.45;;;25.50;39.00;;;;;;5054339;28;20400;-72